Terminal Aerodrome Forecast
Issued by NWS

Current Version | Previous Version | Text Only | Print | Product List | Glossary Off
Versions: 1 2 3 4 5 6 7 8 9 10 11 12 13 14 15 16 17 18 19 20 21 22

000
FTUS41 KPBZ 202300
TAFHLG
TAF
KHLG 202320Z 2100/2124 25006KT P6SM BKN060
     FM210300 VRB05KT P6SM SCT060
     FM210800 VRB03KT 3SM BR SCT060
      TEMPO 2109/2113 1/2SM FG OVC001
     FM211400 24010KT P6SM BKN060=

USA.gov is the U.S. government's official web portal to all federal, state and local government web resources and services.